sensor_id;sensor_type;location;lat;lon;timestamp;P1;durP1;ratioP1;P2;durP2;ratioP2
55112;SDS011;41006;50.920;3.456;2023-07-24T00:00:26;4.50;;;3.70;;
55112;SDS011;41006;50.920;3.456;2023-07-24T00:00:59;3.80;;;3.40;;
55112;SDS011;41006;50.920;3.456;2023-07-24T00:01:29;3.55;;;3.25;;
55112;SDS011;41006;50.920;3.456;2023-07-24T00:02:03;3.60;;;3.30;;
55112;SDS011;41006;50.920;3.456;2023-07-24T00:02:35;4.03;;;3.67;;
55112;SDS011;41006;50.920;3.456;2023-07-24T00:03:06;3.80;;;3.50;;
55112;SDS011;41006;50.920;3.456;2023-07-24T00:03:36;7.05;;;3.80;;
55112;SDS011;41006;50.920;3.456;2023-07-24T00:04:09;4.03;;;3.38;;
55112;SDS011;41006;50.920;3.456;2023-07-24T00:04:39;3.50;;;3.20;;
55112;SDS011;41006;50.920;3.456;2023-07-24T00:05:09;4.75;;;3.20;;
55112;SDS011;41006;50.920;3.456;2023-07-24T00:05:40;4.13;;;3.30;;
55112;SDS011;41006;50.920;3.456;2023-07-24T00:06:14;3.65;;;3.35;;
55112;SDS011;41006;50.920;3.456;2023-07-24T00:06:47;4.00;;;3.58;;
55112;SDS011;41006;50.920;3.456;2023-07-24T00:07:20;3.60;;;3.30;;
55112;SDS011;41006;50.920;3.456;2023-07-24T00:07:56;4.18;;;3.53;;
55112;SDS011;41006;50.920;3.456;2023-07-24T00:08:28;4.40;;;4.00;;
55112;SDS011;41006;50.920;3.456;2023-07-24T00:09:01;3.53;;;3.22;;
55112;SDS011;41006;50.920;3.456;2023-07-24T00:09:32;3.67;;;3.38;;
55112;SDS011;41006;50.920;3.456;2023-07-24T00:10:02;4.85;;;3.78;;
55112;SDS011;41006;50.920;3.456;2023-07-24T00:10:33;3.97;;;3.58;;
55112;SDS011;41006;50.920;3.456;2023-07-24T00:11:06;7.07;;;3.40;;
55112;SDS011;41006;50.920;3.456;2023-07-24T00:11:40;3.22;;;2.92;;
55112;SDS011;41006;50.920;3.456;2023-07-24T00:12:10;4.30;;;3.90;;
55112;SDS011;41006;50.920;3.456;2023-07-24T00:12:43;4.13;;;3.70;;
55112;SDS011;41006;50.920;3.456;2023-07-24T00:13:15;4.05;;;3.55;;
55112;SDS011;41006;50.920;3.456;2023-07-24T00:13:49;3.72;;;3.30;;
55112;SDS011;41006;50.920;3.456;2023-07-24T00:14:22;3.90;;;3.60;;
55112;SDS011;41006;50.920;3.456;2023-07-24T00:14:54;4.07;;;3.72;;
55112;SDS011;41006;50.920;3.456;2023-07-24T00:15:25;3.55;;;3.25;;
55112;SDS011;41006;50.920;3.456;2023-07-24T00:15:57;3.53;;;3.22;;
55112;SDS011;41006;50.920;3.456;2023-07-24T00:16:28;4.32;;;3.90;;
55112;SDS011;41006;50.920;3.456;2023-07-24T00:17:03;3.83;;;3.53;;
55112;SDS011;41006;50.920;3.456;2023-07-24T00:17:34;3.80;;;3.50;;
55112;SDS011;41006;50.920;3.456;2023-07-24T00:18:04;4.00;;;3.60;;
55112;SDS011;41006;50.920;3.456;2023-07-24T00:18:39;3.55;;;3.25;;
55112;SDS011;41006;50.920;3.456;2023-07-24T00:19:12;4.68;;;3.50;;
55112;SDS011;41006;50.920;3.456;2023-07-24T00:19:45;3.95;;;3.65;;
55112;SDS011;41006;50.920;3.456;2023-07-24T00:20:17;3.78;;;3.47;;
55112;SDS011;41006;50.920;3.456;2023-07-24T00:20:48;4.22;;;3.83;;
55112;SDS011;41006;50.920;3.456;2023-07-24T00:21:18;3.90;;;3.60;;
55112;SDS011;41006;50.920;3.456;2023-07-24T00:21:53;3.65;;;3.40;;
55112;SDS011;41006;50.920;3.456;2023-07-24T00:22:23;3.90;;;3.60;;
55112;SDS011;41006;50.920;3.456;2023-07-24T00:22:53;5.72;;;3.78;;
55112;SDS011;41006;50.920;3.456;2023-07-24T00:23:24;4.72;;;4.10;;
55112;SDS011;41006;50.920;3.456;2023-07-24T00:23:56;4.50;;;3.50;;
55112;SDS011;41006;50.920;3.456;2023-07-24T00:24:27;3.95;;;3.65;;
55112;SDS011;41006;50.920;3.456;2023-07-24T00:25:00;4.75;;;4.22;;
55112;SDS011;41006;50.920;3.456;2023-07-24T00:25:35;6.65;;;4.55;;
55112;SDS011;41006;50.920;3.456;2023-07-24T00:26:10;4.82;;;3.78;;
55112;SDS011;41006;50.920;3.456;2023-07-24T00:26:40;6.15;;;3.55;;
55112;SDS011;41006;50.920;3.456;2023-07-24T00:27:11;3.95;;;3.65;;
55112;SDS011;41006;50.920;3.456;2023-07-24T00:27:41;4.50;;;3.88;;
55112;SDS011;41006;50.920;3.456;2023-07-24T00:28:14;4.45;;;4.05;;
55112;SDS011;41006;50.920;3.456;2023-07-24T00:28:47;4.60;;;4.20;;
55112;SDS011;41006;50.920;3.456;2023-07-24T00:29:19;4.47;;;3.80;;
55112;SDS011;41006;50.920;3.456;2023-07-24T00:29:52;4.18;;;3.78;;
55112;SDS011;41006;50.920;3.456;2023-07-24T00:30:22;6.40;;;4.10;;
55112;SDS011;41006;50.920;3.456;2023-07-24T00:30:55;4.63;;;3.90;;
55112;SDS011;41006;50.920;3.456;2023-07-24T00:31:28;4.10;;;3.80;;
55112;SDS011;41006;50.920;3.456;2023-07-24T00:31:59;4.65;;;3.95;;
55112;SDS011;41006;50.920;3.456;2023-07-24T00:32:31;4.40;;;3.92;;
55112;SDS011;41006;50.920;3.456;2023-07-24T00:33:04;5.00;;;4.20;;
55112;SDS011;41006;50.920;3.456;2023-07-24T00:33:34;4.20;;;3.80;;
55112;SDS011;41006;50.920;3.456;2023-07-24T00:34:09;4.97;;;3.65;;
55112;SDS011;41006;50.920;3.456;2023-07-24T00:34:40;4.25;;;3.85;;
55112;SDS011;41006;50.920;3.456;2023-07-24T00:35:12;6.40;;;4.05;;
55112;SDS011;41006;50.920;3.456;2023-07-24T00:35:45;5.50;;;3.65;;
55112;SDS011;41006;50.920;3.456;2023-07-24T00:36:18;4.30;;;3.65;;
55112;SDS011;41006;50.920;3.456;2023-07-24T00:36:50;5.75;;;4.03;;
55112;SDS011;41006;50.920;3.456;2023-07-24T00:37:21;5.22;;;4.05;;
55112;SDS011;41006;50.920;3.456;2023-07-24T00:37:51;4.63;;;4.22;;
55112;SDS011;41006;50.920;3.456;2023-07-24T00:38:24;5.53;;;3.92;;
55112;SDS011;41006;50.920;3.456;2023-07-24T00:38:54;4.03;;;3.72;;
55112;SDS011;41006;50.920;3.456;2023-07-24T00:39:25;5.18;;;3.80;;
55112;SDS011;41006;50.920;3.456;2023-07-24T00:40:00;4.28;;;3.67;;
55112;SDS011;41006;50.920;3.456;2023-07-24T00:40:33;6.03;;;3.85;;
55112;SDS011;41006;50.920;3.456;2023-07-24T00:41:04;4.25;;;3.85;;
55112;SDS011;41006;50.920;3.456;2023-07-24T00:41:36;4.05;;;3.65;;
55112;SDS011;41006;50.920;3.456;2023-07-24T00:42:09;4.72;;;4.03;;
55112;SDS011;41006;50.920;3.456;2023-07-24T00:42:39;5.00;;;4.03;;
55112;SDS011;41006;50.920;3.456;2023-07-24T00:43:12;4.88;;;3.92;;
55112;SDS011;41006;50.920;3.456;2023-07-24T00:43:45;3.88;;;3.38;;
55112;SDS011;41006;50.920;3.456;2023-07-24T00:44:20;4.53;;;3.88;;
55112;SDS011;41006;50.920;3.456;2023-07-24T00:44:55;5.35;;;3.67;;
55112;SDS011;41006;50.920;3.456;2023-07-24T00:45:28;6.25;;;4.03;;
55112;SDS011;41006;50.920;3.456;2023-07-24T00:45:58;4.53;;;4.13;;
55112;SDS011;41006;50.920;3.456;2023-07-24T00:46:29;5.25;;;3.88;;
55112;SDS011;41006;50.920;3.456;2023-07-24T00:47:02;4.03;;;3.72;;
55112;SDS011;41006;50.920;3.456;2023-07-24T00:47:33;4.30;;;3.90;;
55112;SDS011;41006;50.920;3.456;2023-07-24T00:48:03;6.63;;;4.10;;
55112;SDS011;41006;50.920;3.456;2023-07-24T00:48:34;6.72;;;4.18;;
55112;SDS011;41006;50.920;3.456;2023-07-24T00:49:07;4.20;;;3.80;;
55112;SDS011;41006;50.920;3.456;2023-07-24T00:49:38;4.80;;;3.78;;
55112;SDS011;41006;50.920;3.456;2023-07-24T00:50:09;4.18;;;3.83;;
55112;SDS011;41006;50.920;3.456;2023-07-24T00:50:44;6.15;;;4.80;;
55112;SDS011;41006;50.920;3.456;2023-07-24T00:51:18;4.45;;;4.05;;
55112;SDS011;41006;50.920;3.456;2023-07-24T00:51:48;4.93;;;4.13;;
55112;SDS011;41006;50.920;3.456;2023-07-24T00:52:22;9.25;;;4.43;;
55112;SDS011;41006;50.920;3.456;2023-07-24T00:52:54;5.00;;;3.50;;
55112;SDS011;41006;50.920;3.456;2023-07-24T00:53:28;5.05;;;4.30;;
55112;SDS011;41006;50.920;3.456;2023-07-24T00:54:00;5.18;;;4.18;;
55112;SDS011;41006;50.920;3.456;2023-07-24T00:54:32;4.63;;;4.22;;
55112;SDS011;41006;50.920;3.456;2023-07-24T00:55:03;5.13;;;4.05;;
55112;SDS011;41006;50.920;3.456;2023-07-24T00:55:36;5.63;;;4.20;;
55112;SDS011;41006;50.920;3.456;2023-07-24T00:56:09;4.97;;;3.90;;
55112;SDS011;41006;50.920;3.456;2023-07-24T00:56:43;5.70;;;3.70;;
55112;SDS011;41006;50.920;3.456;2023-07-24T00:57:15;5.47;;;4.47;;
55112;SDS011;41006;50.920;3.456;2023-07-24T00:57:46;4.38;;;3.72;;
55112;SDS011;41006;50.920;3.456;2023-07-24T00:58:19;4.03;;;3.63;;
55112;SDS011;41006;50.920;3.456;2023-07-24T00:58:54;4.45;;;3.72;;
55112;SDS011;41006;50.920;3.456;2023-07-24T00:59:28;5.88;;;3.58;;
55112;SDS011;41006;50.920;3.456;2023-07-24T00:59:59;6.10;;;4.18;;
55112;SDS011;41006;50.920;3.456;2023-07-24T01:00:32;4.63;;;3.63;;
55112;SDS011;41006;50.920;3.456;2023-07-24T01:01:03;4.43;;;4.03;;
55112;SDS011;41006;50.920;3.456;2023-07-24T01:01:34;9.40;;;4.20;;
55112;SDS011;41006;50.920;3.456;2023-07-24T01:02:05;4.45;;;3.80;;
55112;SDS011;41006;50.920;3.456;2023-07-24T01:02:36;5.63;;;4.15;;
55112;SDS011;41006;50.920;3.456;2023-07-24T01:03:06;5.03;;;4.38;;
55112;SDS011;41006;50.920;3.456;2023-07-24T01:03:40;4.60;;;4.10;;
55112;SDS011;41006;50.920;3.456;2023-07-24T01:04:10;3.80;;;3.50;;
55112;SDS011;41006;50.920;3.456;2023-07-24T01:04:41;4.53;;;3.97;;
55112;SDS011;41006;50.920;3.456;2023-07-24T01:05:13;8.02;;;4.30;;
55112;SDS011;41006;50.920;3.456;2023-07-24T01:05:45;4.45;;;4.05;;
55112;SDS011;41006;50.920;3.456;2023-07-24T01:06:15;4.93;;;3.90;;
55112;SDS011;41006;50.920;3.456;2023-07-24T01:06:45;4.60;;;4.00;;
55112;SDS011;41006;50.920;3.456;2023-07-24T01:07:16;6.43;;;4.35;;
55112;SDS011;41006;50.920;3.456;2023-07-24T01:07:52;4.68;;;4.05;;
55112;SDS011;41006;50.920;3.456;2023-07-24T01:08:23;6.07;;;4.03;;
55112;SDS011;41006;50.920;3.456;2023-07-24T01:08:56;7.40;;;4.18;;
55112;SDS011;41006;50.920;3.456;2023-07-24T01:09:28;4.30;;;3.90;;
55112;SDS011;41006;50.920;3.456;2023-07-24T01:09:59;5.18;;;4.07;;
55112;SDS011;41006;50.920;3.456;2023-07-24T01:10:29;4.55;;;4.07;;
55112;SDS011;41006;50.920;3.456;2023-07-24T01:12:00;7.38;;;4.28;;
55112;SDS011;41006;50.920;3.456;2023-07-24T01:12:36;4.30;;;3.95;;
55112;SDS011;41006;50.920;3.456;2023-07-24T01:13:22;4.35;;;4.00;;
55112;SDS011;41006;50.920;3.456;2023-07-24T01:16:29;6.18;;;4.28;;
55112;SDS011;41006;50.920;3.456;2023-07-24T01:17:07;4.47;;;4.07;;
55112;SDS011;41006;50.920;3.456;2023-07-24T01:17:45;5.65;;;4.20;;
55112;SDS011;41006;50.920;3.456;2023-07-24T01:18:22;5.65;;;4.35;;
55112;SDS011;41006;50.920;3.456;2023-07-24T01:18:56;4.05;;;3.65;;
55112;SDS011;41006;50.920;3.456;2023-07-24T01:19:37;4.45;;;4.05;;
55112;SDS011;41006;50.920;3.456;2023-07-24T01:20:11;5.55;;;4.05;;
55112;SDS011;41006;50.920;3.456;2023-07-24T01:20:48;5.10;;;4.60;;
55112;SDS011;41006;50.920;3.456;2023-07-24T01:21:23;5.65;;;4.65;;
55112;SDS011;41006;50.920;3.456;2023-07-24T01:23:01;4.30;;;3.90;;
55112;SDS011;41006;50.920;3.456;2023-07-24T01:23:45;4.88;;;4.40;;
55112;SDS011;41006;50.920;3.456;2023-07-24T01:24:29;5.75;;;4.63;;
55112;SDS011;41006;50.920;3.456;2023-07-24T01:25:23;5.28;;;4.05;;
55112;SDS011;41006;50.920;3.456;2023-07-24T01:26:06;6.25;;;4.00;;
55112;SDS011;41006;50.920;3.456;2023-07-24T01:26:38;5.40;;;4.85;;
55112;SDS011;41006;50.920;3.456;2023-07-24T01:27:08;5.25;;;4.05;;
55112;SDS011;41006;50.920;3.456;2023-07-24T01:27:42;6.40;;;3.95;;
55112;SDS011;41006;50.920;3.456;2023-07-24T01:28:17;5.53;;;4.65;;
55112;SDS011;41006;50.920;3.456;2023-07-24T01:28:50;5.60;;;3.97;;
55112;SDS011;41006;50.920;3.456;2023-07-24T01:29:22;5.18;;;4.70;;
55112;SDS011;41006;50.920;3.456;2023-07-24T01:29:53;4.15;;;3.75;;
55112;SDS011;41006;50.920;3.456;2023-07-24T01:30:23;4.85;;;4.13;;
55112;SDS011;41006;50.920;3.456;2023-07-24T01:30:54;7.47;;;4.03;;
55112;SDS011;41006;50.920;3.456;2023-07-24T01:31:25;4.40;;;4.00;;
55112;SDS011;41006;50.920;3.456;2023-07-24T01:31:55;4.30;;;3.90;;
55112;SDS011;41006;50.920;3.456;2023-07-24T01:32:25;4.38;;;3.97;;
55112;SDS011;41006;50.920;3.456;2023-07-24T01:32:58;5.38;;;4.72;;
55112;SDS011;41006;50.920;3.456;2023-07-24T01:33:29;5.13;;;4.53;;
55112;SDS011;41006;50.920;3.456;2023-07-24T01:34:06;6.65;;;4.32;;
55112;SDS011;41006;50.920;3.456;2023-07-24T01:34:41;4.13;;;3.83;;
55112;SDS011;41006;50.920;3.456;2023-07-24T01:35:12;5.55;;;4.50;;
55112;SDS011;41006;50.920;3.456;2023-07-24T01:35:47;4.72;;;4.18;;
55112;SDS011;41006;50.920;3.456;2023-07-24T01:36:20;4.78;;;4.00;;
55112;SDS011;41006;50.920;3.456;2023-07-24T01:36:53;6.22;;;4.43;;
55112;SDS011;41006;50.920;3.456;2023-07-24T01:37:26;7.38;;;4.32;;
55112;SDS011;41006;50.920;3.456;2023-07-24T01:38:00;4.63;;;4.22;;
55112;SDS011;41006;50.920;3.456;2023-07-24T01:38:34;7.53;;;4.38;;
55112;SDS011;41006;50.920;3.456;2023-07-24T01:39:10;6.13;;;4.60;;
55112;SDS011;41006;50.920;3.456;2023-07-24T01:39:40;4.78;;;4.35;;
55112;SDS011;41006;50.920;3.456;2023-07-24T01:40:12;5.20;;;4.25;;
55112;SDS011;41006;50.920;3.456;2023-07-24T01:40:43;6.72;;;4.43;;
55112;SDS011;41006;50.920;3.456;2023-07-24T01:41:19;4.45;;;4.05;;
55112;SDS011;41006;50.920;3.456;2023-07-24T01:41:50;5.00;;;4.50;;
55112;SDS011;41006;50.920;3.456;2023-07-24T01:42:20;5.18;;;4.20;;
55112;SDS011;41006;50.920;3.456;2023-07-24T01:42:51;4.93;;;4.40;;
55112;SDS011;41006;50.920;3.456;2023-07-24T01:43:24;4.82;;;4.32;;
55112;SDS011;41006;50.920;3.456;2023-07-24T01:43:58;5.47;;;4.05;;
55112;SDS011;41006;50.920;3.456;2023-07-24T01:44:31;7.22;;;4.80;;
55112;SDS011;41006;50.920;3.456;2023-07-24T01:45:02;4.88;;;4.47;;
55112;SDS011;41006;50.920;3.456;2023-07-24T01:45:33;5.10;;;4.63;;
55112;SDS011;41006;50.920;3.456;2023-07-24T01:46:04;5.78;;;4.28;;
55112;SDS011;41006;50.920;3.456;2023-07-24T01:46:34;5.40;;;4.88;;
55112;SDS011;41006;50.920;3.456;2023-07-24T01:47:07;5.30;;;4.80;;
55112;SDS011;41006;50.920;3.456;2023-07-24T01:47:40;5.82;;;4.70;;
55112;SDS011;41006;50.920;3.456;2023-07-24T01:48:10;8.07;;;5.13;;
55112;SDS011;41006;50.920;3.456;2023-07-24T01:48:41;5.85;;;4.97;;
55112;SDS011;41006;50.920;3.456;2023-07-24T01:49:13;6.18;;;4.90;;
55112;SDS011;41006;50.920;3.456;2023-07-24T01:49:46;6.13;;;4.18;;
55112;SDS011;41006;50.920;3.456;2023-07-24T01:50:16;6.13;;;4.85;;
55112;SDS011;41006;50.920;3.456;2023-07-24T01:50:49;6.93;;;4.68;;
55112;SDS011;41006;50.920;3.456;2023-07-24T01:51:20;6.63;;;4.97;;
55112;SDS011;41006;50.920;3.456;2023-07-24T01:51:52;5.15;;;4.65;;
55112;SDS011;41006;50.920;3.456;2023-07-24T01:52:23;6.05;;;4.72;;
55112;SDS011;41006;50.920;3.456;2023-07-24T01:52:53;6.78;;;4.85;;
55112;SDS011;41006;50.920;3.456;2023-07-24T01:53:29;6.47;;;4.00;;
55112;SDS011;41006;50.920;3.456;2023-07-24T01:53:59;7.55;;;4.43;;
55112;SDS011;41006;50.920;3.456;2023-07-24T01:54:30;6.60;;;4.70;;
55112;SDS011;41006;50.920;3.456;2023-07-24T01:55:00;5.90;;;4.20;;
55112;SDS011;41006;50.920;3.456;2023-07-24T01:55:30;4.70;;;4.30;;
55112;SDS011;41006;50.920;3.456;2023-07-24T01:56:01;7.35;;;4.88;;
55112;SDS011;41006;50.920;3.456;2023-07-24T01:56:35;5.57;;;4.50;;
55112;SDS011;41006;50.920;3.456;2023-07-24T01:57:06;5.25;;;4.75;;
55112;SDS011;41006;50.920;3.456;2023-07-24T01:57:39;6.05;;;4.63;;
55112;SDS011;41006;50.920;3.456;2023-07-24T01:58:09;7.70;;;4.90;;
55112;SDS011;41006;50.920;3.456;2023-07-24T01:58:39;4.97;;;4.43;;
55112;SDS011;41006;50.920;3.456;2023-07-24T01:59:13;7.18;;;4.78;;
55112;SDS011;41006;50.920;3.456;2023-07-24T01:59:43;6.22;;;5.25;;
55112;SDS011;41006;50.920;3.456;2023-07-24T02:00:14;5.85;;;4.80;;
55112;SDS011;41006;50.920;3.456;2023-07-24T02:00:47;5.70;;;4.72;;
55112;SDS011;41006;50.920;3.456;2023-07-24T02:01:18;6.85;;;5.25;;
55112;SDS011;41006;50.920;3.456;2023-07-24T02:01:48;6.03;;;4.95;;
55112;SDS011;41006;50.920;3.456;2023-07-24T02:02:23;8.43;;;5.43;;
55112;SDS011;41006;50.920;3.456;2023-07-24T02:02:53;5.97;;;5.40;;
55112;SDS011;41006;50.920;3.456;2023-07-24T02:03:24;9.55;;;5.10;;
55112;SDS011;41006;50.920;3.456;2023-07-24T02:03:54;5.68;;;5.05;;
55112;SDS011;41006;50.920;3.456;2023-07-24T02:04:24;5.47;;;4.95;;
55112;SDS011;41006;50.920;3.456;2023-07-24T02:04:55;7.63;;;4.93;;
55112;SDS011;41006;50.920;3.456;2023-07-24T02:05:30;5.78;;;4.63;;
55112;SDS011;41006;50.920;3.456;2023-07-24T02:06:02;5.15;;;4.65;;
55112;SDS011;41006;50.920;3.456;2023-07-24T02:06:33;5.40;;;4.90;;
55112;SDS011;41006;50.920;3.456;2023-07-24T02:07:03;7.15;;;5.03;;
55112;SDS011;41006;50.920;3.456;2023-07-24T02:07:34;6.88;;;4.68;;
55112;SDS011;41006;50.920;3.456;2023-07-24T02:08:09;5.70;;;5.20;;
55112;SDS011;41006;50.920;3.456;2023-07-24T02:08:39;7.47;;;4.97;;
55112;SDS011;41006;50.920;3.456;2023-07-24T02:09:11;7.95;;;5.25;;
55112;SDS011;41006;50.920;3.456;2023-07-24T02:09:41;6.10;;;4.53;;
55112;SDS011;41006;50.920;3.456;2023-07-24T02:10:16;8.43;;;5.30;;
55112;SDS011;41006;50.920;3.456;2023-07-24T02:10:49;5.07;;;4.68;;
55112;SDS011;41006;50.920;3.456;2023-07-24T02:11:22;6.30;;;4.88;;
55112;SDS011;41006;50.920;3.456;2023-07-24T02:11:53;7.97;;;4.65;;
55112;SDS011;41006;50.920;3.456;2023-07-24T02:12:25;6.13;;;4.88;;
55112;SDS011;41006;50.920;3.456;2023-07-24T02:12:56;5.35;;;4.85;;
55112;SDS011;41006;50.920;3.456;2023-07-24T02:13:28;5.20;;;4.70;;
55112;SDS011;41006;50.920;3.456;2023-07-24T02:14:01;7.18;;;4.88;;
55112;SDS011;41006;50.920;3.456;2023-07-24T02:14:31;7.28;;;4.88;;
55112;SDS011;41006;50.920;3.456;2023-07-24T02:15:07;5.82;;;4.80;;
55112;SDS011;41006;50.920;3.456;2023-07-24T02:15:44;4.93;;;4.40;;
55112;SDS011;41006;50.920;3.456;2023-07-24T02:16:19;5.30;;;4.80;;
55112;SDS011;41006;50.920;3.456;2023-07-24T02:16:52;6.70;;;4.85;;
55112;SDS011;41006;50.920;3.456;2023-07-24T02:17:26;5.55;;;5.00;;
55112;SDS011;41006;50.920;3.456;2023-07-24T02:17:58;5.93;;;4.60;;
55112;SDS011;41006;50.920;3.456;2023-07-24T02:18:31;5.30;;;4.80;;
55112;SDS011;41006;50.920;3.456;2023-07-24T02:19:04;5.78;;;5.18;;
55112;SDS011;41006;50.920;3.456;2023-07-24T02:19:34;7.03;;;4.82;;
55112;SDS011;41006;50.920;3.456;2023-07-24T02:20:05;5.28;;;4.43;;
55112;SDS011;41006;50.920;3.456;2023-07-24T02:20:36;5.72;;;4.60;;
55112;SDS011;41006;50.920;3.456;2023-07-24T02:21:11;7.03;;;4.90;;
55112;SDS011;41006;50.920;3.456;2023-07-24T02:21:46;6.65;;;5.00;;
55112;SDS011;41006;50.920;3.456;2023-07-24T02:22:17;6.53;;;4.85;;
55112;SDS011;41006;50.920;3.456;2023-07-24T02:22:49;5.40;;;4.90;;
55112;SDS011;41006;50.920;3.456;2023-07-24T02:23:20;5.85;;;4.88;;
55112;SDS011;41006;50.920;3.456;2023-07-24T02:23:50;5.88;;;5.07;;
55112;SDS011;41006;50.920;3.456;2023-07-24T02:24:25;5.60;;;5.10;;
55112;SDS011;41006;50.920;3.456;2023-07-24T02:25:01;5.78;;;5.22;;
55112;SDS011;41006;50.920;3.456;2023-07-24T02:25:35;8.48;;;5.20;;
55112;SDS011;41006;50.920;3.456;2023-07-24T02:26:08;6.28;;;5.40;;
55112;SDS011;41006;50.920;3.456;2023-07-24T02:26:40;6.97;;;6.15;;
55112;SDS011;41006;50.920;3.456;2023-07-24T02:27:24;6.25;;;5.57;;
55112;SDS011;41006;50.920;3.456;2023-07-24T02:27:57;7.45;;;6.25;;
55112;SDS011;41006;50.920;3.456;2023-07-24T02:28:27;6.25;;;5.65;;
55112;SDS011;41006;50.920;3.456;2023-07-24T02:28:58;9.60;;;5.35;;
55112;SDS011;41006;50.920;3.456;2023-07-24T02:29:28;5.95;;;5.35;;
55112;SDS011;41006;50.920;3.456;2023-07-24T02:29:58;6.60;;;5.95;;
55112;SDS011;41006;50.920;3.456;2023-07-24T02:30:33;6.82;;;5.80;;
55112;SDS011;41006;50.920;3.456;2023-07-24T02:31:07;5.72;;;4.70;;
55112;SDS011;41006;50.920;3.456;2023-07-24T02:31:41;7.00;;;5.47;;
55112;SDS011;41006;50.920;3.456;2023-07-24T02:32:13;6.13;;;5.53;;
55112;SDS011;41006;50.920;3.456;2023-07-24T02:32:44;5.90;;;4.90;;
55112;SDS011;41006;50.920;3.456;2023-07-24T02:33:16;6.00;;;5.10;;
55112;SDS011;41006;50.920;3.456;2023-07-24T02:33:52;5.45;;;4.82;;
55112;SDS011;41006;50.920;3.456;2023-07-24T02:34:22;5.25;;;4.75;;
55112;SDS011;41006;50.920;3.456;2023-07-24T02:34:58;10.10;;;4.78;;
55112;SDS011;41006;50.920;3.456;2023-07-24T02:35:30;5.32;;;4.82;;
55112;SDS011;41006;50.920;3.456;2023-07-24T02:36:07;6.55;;;5.28;;
55112;SDS011;41006;50.920;3.456;2023-07-24T02:36:38;5.28;;;4.28;;
55112;SDS011;41006;50.920;3.456;2023-07-24T02:37:11;5.00;;;4.20;;
55112;SDS011;41006;50.920;3.456;2023-07-24T02:37:47;4.78;;;4.28;;
55112;SDS011;41006;50.920;3.456;2023-07-24T02:38:17;6.45;;;4.38;;
55112;SDS011;41006;50.920;3.456;2023-07-24T02:38:50;4.85;;;4.43;;
55112;SDS011;41006;50.920;3.456;2023-07-24T02:39:20;9.80;;;4.57;;
55112;SDS011;41006;50.920;3.456;2023-07-24T02:39:51;4.88;;;4.07;;
55112;SDS011;41006;50.920;3.456;2023-07-24T02:40:23;4.93;;;4.20;;
55112;SDS011;41006;50.920;3.456;2023-07-24T02:40:55;5.60;;;4.40;;
55112;SDS011;41006;50.920;3.456;2023-07-24T02:41:28;6.30;;;4.60;;
55112;SDS011;41006;50.920;3.456;2023-07-24T02:41:58;5.03;;;4.60;;
55112;SDS011;41006;50.920;3.456;2023-07-24T02:42:31;6.05;;;4.70;;
55112;SDS011;41006;50.920;3.456;2023-07-24T02:43:01;6.50;;;5.00;;
55112;SDS011;41006;50.920;3.456;2023-07-24T02:43:37;5.32;;;4.82;;
55112;SDS011;41006;50.920;3.456;2023-07-24T02:44:12;6.40;;;4.60;;
55112;SDS011;41006;50.920;3.456;2023-07-24T02:44:47;4.72;;;3.88;;
55112;SDS011;41006;50.920;3.456;2023-07-24T02:45:18;5.70;;;5.05;;
55112;SDS011;41006;50.920;3.456;2023-07-24T02:45:50;5.45;;;4.85;;
55112;SDS011;41006;50.920;3.456;2023-07-24T02:46:23;5.70;;;4.47;;
55112;SDS011;41006;50.920;3.456;2023-07-24T02:46:54;6.07;;;4.97;;
55112;SDS011;41006;50.920;3.456;2023-07-24T02:47:27;4.78;;;4.38;;
55112;SDS011;41006;50.920;3.456;2023-07-24T02:48:00;5.22;;;4.40;;
55112;SDS011;41006;50.920;3.456;2023-07-24T02:48:34;5.13;;;4.63;;
55112;SDS011;41006;50.920;3.456;2023-07-24T02:49:07;8.07;;;4.85;;
55112;SDS011;41006;50.920;3.456;2023-07-24T02:49:39;9.15;;;5.10;;
55112;SDS011;41006;50.920;3.456;2023-07-24T02:50:10;5.45;;;4.95;;
55112;SDS011;41006;50.920;3.456;2023-07-24T02:50:40;6.57;;;4.80;;
55112;SDS011;41006;50.920;3.456;2023-07-24T02:51:11;7.20;;;5.32;;
55112;SDS011;41006;50.920;3.456;2023-07-24T02:51:43;6.07;;;4.60;;
55112;SDS011;41006;50.920;3.456;2023-07-24T02:52:16;5.45;;;4.88;;
55112;SDS011;41006;50.920;3.456;2023-07-24T02:52:49;6.18;;;5.40;;
55112;SDS011;41006;50.920;3.456;2023-07-24T02:53:19;6.82;;;4.93;;
55112;SDS011;41006;50.920;3.456;2023-07-24T02:53:53;7.30;;;5.07;;
55112;SDS011;41006;50.920;3.456;2023-07-24T02:54:25;6.03;;;5.20;;
55112;SDS011;41006;50.920;3.456;2023-07-24T02:54:56;6.18;;;4.63;;
55112;SDS011;41006;50.920;3.456;2023-07-24T02:55:26;6.93;;;4.65;;
55112;SDS011;41006;50.920;3.456;2023-07-24T02:56:00;5.20;;;4.35;;
55112;SDS011;41006;50.920;3.456;2023-07-24T02:56:32;5.78;;;4.30;;
55112;SDS011;41006;50.920;3.456;2023-07-24T02:57:07;6.60;;;4.63;;
55112;SDS011;41006;50.920;3.456;2023-07-24T02:57:38;5.13;;;4.35;;
55112;SDS011;41006;50.920;3.456;2023-07-24T02:58:13;4.60;;;4.20;;
55112;SDS011;41006;50.920;3.456;2023-07-24T02:58:50;5.15;;;4.55;;
55112;SDS011;41006;50.920;3.456;2023-07-24T02:59:22;5.15;;;4.65;;
55112;SDS011;41006;50.920;3.456;2023-07-24T02:59:55;6.50;;;5.32;;
55112;SDS011;41006;50.920;3.456;2023-07-24T03:00:28;4.93;;;4.47;;
55112;SDS011;41006;50.920;3.456;2023-07-24T03:01:07;5.32;;;4.60;;
55112;SDS011;41006;50.920;3.456;2023-07-24T03:01:38;5.47;;;4.97;;
55112;SDS011;41006;50.920;3.456;2023-07-24T03:02:08;5.30;;;4.80;;
55112;SDS011;41006;50.920;3.456;2023-07-24T03:02:41;5.78;;;5.18;;
55112;SDS011;41006;50.920;3.456;2023-07-24T03:03:11;5.25;;;4.75;;
55112;SDS011;41006;50.920;3.456;2023-07-24T03:03:46;5.63;;;4.47;;
55112;SDS011;41006;50.920;3.456;2023-07-24T03:04:17;5.70;;;4.78;;
55112;SDS011;41006;50.920;3.456;2023-07-24T03:04:48;5.40;;;4.60;;
55112;SDS011;41006;50.920;3.456;2023-07-24T03:05:18;6.80;;;5.45;;
55112;SDS011;41006;50.920;3.456;2023-07-24T03:05:48;5.03;;;4.53;;
55112;SDS011;41006;50.920;3.456;2023-07-24T03:06:19;5.55;;;4.60;;
55112;SDS011;41006;50.920;3.456;2023-07-24T03:06:52;5.10;;;4.60;;
55112;SDS011;41006;50.920;3.456;2023-07-24T03:07:22;4.63;;;4.18;;
55112;SDS011;41006;50.920;3.456;2023-07-24T03:07:52;5.18;;;4.68;;
55112;SDS011;41006;50.920;3.456;2023-07-24T03:08:27;5.85;;;4.43;;
55112;SDS011;41006;50.920;3.456;2023-07-24T03:08:58;4.93;;;4.43;;
55112;SDS011;41006;50.920;3.456;2023-07-24T03:09:28;6.20;;;5.43;;
55112;SDS011;41006;50.920;3.456;2023-07-24T03:10:01;4.68;;;4.28;;
55112;SDS011;41006;50.920;3.456;2023-07-24T03:10:32;5.97;;;5.38;;
55112;SDS011;41006;50.920;3.456;2023-07-24T03:11:05;5.80;;;4.80;;
55112;SDS011;41006;50.920;3.456;2023-07-24T03:11:36;6.63;;;5.20;;
55112;SDS011;41006;50.920;3.456;2023-07-24T03:12:06;7.03;;;5.30;;
55112;SDS011;41006;50.920;3.456;2023-07-24T03:12:37;5.82;;;4.82;;
55112;SDS011;41006;50.920;3.456;2023-07-24T03:13:07;5.88;;;5.35;;
55112;SDS011;41006;50.920;3.456;2023-07-24T03:13:38;6.18;;;4.78;;
55112;SDS011;41006;50.920;3.456;2023-07-24T03:14:12;5.82;;;4.78;;
55112;SDS011;41006;50.920;3.456;2023-07-24T03:14:47;6.32;;;5.72;;
55112;SDS011;41006;50.920;3.456;2023-07-24T03:15:18;5.85;;;5.15;;
55112;SDS011;41006;50.920;3.456;2023-07-24T03:15:55;6.32;;;5.18;;
55112;SDS011;41006;50.920;3.456;2023-07-24T03:16:26;5.38;;;4.70;;
55112;SDS011;41006;50.920;3.456;2023-07-24T03:16:57;5.75;;;5.22;;
55112;SDS011;41006;50.920;3.456;2023-07-24T03:17:30;9.38;;;5.20;;
55112;SDS011;41006;50.920;3.456;2023-07-24T03:18:00;5.53;;;5.03;;
55112;SDS011;41006;50.920;3.456;2023-07-24T03:18:30;6.35;;;4.72;;
55112;SDS011;41006;50.920;3.456;2023-07-24T03:19:06;5.82;;;5.22;;
55112;SDS011;41006;50.920;3.456;2023-07-24T03:19:37;5.57;;;5.03;;
55112;SDS011;41006;50.920;3.456;2023-07-24T03:20:08;6.10;;;5.20;;
55112;SDS011;41006;50.920;3.456;2023-07-24T03:20:42;5.72;;;5.10;;